Time;durP1;ratioP1;P1;durP2;ratioP2;P2;SDS_P1;SDS_P2;PMS_P1;PMS_P2;Temp;Humidity;BMP_temperature;BMP_pressure;BME280_temperature;BME280_humidity;BME280_pressure;Samples;Min_cycle;Max_cycle;Signal;HPM_P1;HPM_P2
2022/04/17 00:13:12;;;;;;;;;4.00;3.00;;;;;15.11;81.42;102243.56;5787170;24;45543;-94
2022/04/17 00:16:30;;;;;;;;;3.00;3.00;;;;;15.06;81.19;102240.69;5756994;24;46418;-96
2022/04/17 00:19:45;;;;;;;;;0.00;0.00;;;;;14.90;81.24;102216.91;5890365;24;45549;-95
2022/04/17 00:25:43;;;;;;;;;2.00;2.00;;;;;14.87;81.08;102217.66;5891279;24;45831;-96
2022/04/17 00:28:18;;;;;;;;;2.67;2.67;;;;;14.81;80.97;102212.06;5889663;24;47164;-95
2022/04/17 00:38:03;;;;;;;;;;;;;;;;;;;;;
2022/04/17 00:44:09;;;;;;;;;3.33;3.33;;;;;14.72;82.67;102226.59;5809115;24;45556;-94
2022/04/17 00:47:01;;;;;;;;;3.00;3.00;;;;;14.69;81.81;102229.06;5827027;24;45273;-96
2022/04/17 00:49:42;;;;;;;;;2.00;2.00;;;;;14.58;82.19;102211.75;5798836;24;45414;-95
2022/04/17 00:52:14;;;;;;;;;4.33;2.00;;;;;14.62;81.76;102229.59;5804649;24;46874;-95
2022/04/17 00:55:11;;;;;;;;;5.33;3.33;;;;;14.52;81.48;102212.34;5877545;24;46012;-95
2022/04/17 00:58:14;;;;;;;;;1.00;1.00;;;;;14.43;81.54;102198.66;5969502;23;45509;-96
2022/04/17 01:09:13;;;;;;;;;;;;;;;;;;;;;
2022/04/17 01:19:27;;;;;;;;;;;;;;;;;;;;;
2022/04/17 01:29:35;;;;;;;;;4.00;4.00;;;;;14.08;82.09;102179.28;5863122;24;45434;-94
2022/04/17 01:32:50;;;;;;;;;;;;;;;;;;;;;
2022/04/17 01:43:12;;;;;;;;;;;;;;;;;;;;;
2022/04/17 01:49:32;;;;;;;;;36.50;29.00;;;;;13.72;81.14;102163.22;5813394;24;45623;-95
2022/04/17 01:52:13;;;;;;;;;28.75;27.25;;;;;13.73;81.48;102168.63;5825025;24;45401;-94
2022/04/17 01:57:28;;;;;;;;;32.25;27.50;;;;;13.68;81.22;102167.47;5848093;24;46158;-95
2022/04/17 02:00:53;;;;;;;;;26.75;18.00;;;;;13.77;81.31;102193.44;5841371;24;45336;-93
2022/04/17 02:03:57;;;;;;;;;;;;;;;;;;;;;
2022/04/17 02:06:56;;;;;;;;;27.50;22.25;;;;;13.52;82.17;102142.81;5836432;24;70008;-96
2022/04/17 04:25:54;;;;;;;;;2.25;2.25;;;;;12.05;82.61;102103.66;5217471;22;25485901;-96
2022/04/17 04:29:07;;;;;;;;;;;;;;;;;;;;;
2022/04/17 04:38:50;;;;;;;;;2.00;2.00;;;;;11.75;82.53;102102.66;6207707;22;45276;-95
2022/04/17 05:04:58;;;;;;;;;3.00;2.33;;;;;11.46;82.49;102118.41;6320581;22;45262;-96
2022/04/17 05:14:32;;;;;;;;;3.67;3.00;;;;;11.41;82.07;102112.88;6149361;23;45721;-96
2022/04/17 05:17:00;;;;;;;;;3.00;3.00;;;;;11.31;82.22;102100.84;6149475;22;45415;-96
2022/04/17 05:42:20;;;;;;;;;4.00;4.00;;;;;11.83;83.04;102125.97;6334481;22;46270;-96
2022/04/17 05:44:46;;;;;;;;;2.67;2.33;;;;;11.90;82.98;102121.13;6404254;22;45320;-95
2022/04/17 05:47:13;;;;;;;;;4.33;3.00;;;;;11.84;83.06;102095.34;6401720;22;47597;-93
2022/04/17 05:49:46;;;;;;;;;5.33;3.33;;;;;12.07;83.03;102122.16;6402706;22;45722;-94
2022/04/17 05:52:12;;;;;;;;;4.00;2.67;;;;;12.05;82.48;102103.66;6402642;22;45647;-94
2022/04/17 05:54:43;;;;;;;;;2.67;2.67;;;;;12.10;82.46;102105.63;6402401;22;45488;-95
2022/04/17 06:00:08;;;;;;;;;2.67;2.33;;;;;12.29;81.10;102132.28;6269757;22;45418;-95
2022/04/17 06:02:36;;;;;;;;;3.67;3.67;;;;;12.36;81.35;102136.22;6268686;22;45544;-96
2022/04/17 06:05:03;;;;;;;;;3.33;2.00;;;;;12.42;81.25;102140.06;6269017;22;45520;-94
2022/04/17 06:07:29;;;;;;;;;5.00;5.00;;;;;12.45;81.10;102134.94;6269385;22;47271;-95
2022/04/17 06:09:55;;;;;;;;;4.00;2.00;;;;;12.39;80.93;102118.00;6243692;22;45744;-95
2022/04/17 06:12:39;;;;;;;;;3.00;3.00;;;;;12.51;80.67;102119.53;6269390;22;45688;-95
2022/04/17 06:15:11;;;;;;;;;3.00;3.00;;;;;12.61;81.10;102131.50;6268915;22;45377;-96
2022/04/17 06:18:03;;;;;;;;;2.67;2.67;;;;;12.72;80.88;102134.78;6268967;22;46329;-94
2022/04/17 06:20:40;;;;;;;;;6.00;4.00;;;;;12.69;80.42;102127.59;6269124;22;45355;-96
2022/04/17 06:25:59;;;;;;;;;2.00;2.00;;;;;12.76;80.08;102118.31;6268038;22;45403;-95
2022/04/17 06:38:06;;;;;;;;;3.00;3.00;;;;;13.12;79.37;102119.44;6300596;22;45257;-96
2022/04/17 06:40:41;;;;;;;;;3.67;3.00;;;;;13.22;79.12;102119.16;6397001;22;46703;-95
2022/04/17 06:43:21;;;;;;;;;3.33;2.00;;;;;13.29;78.49;102117.78;6397187;22;45454;-95
2022/04/17 06:49:38;;;;;;;;;4.00;3.00;;;;;13.38;77.73;102120.94;6271128;22;45522;-94
2022/04/17 06:56:22;;;;;;;;;;;;;;;;;;;;;
2022/04/17 07:05:12;;;;;;;;;3.33;2.33;;;;;13.81;76.43;102118.88;6326795;22;46085;-93
2022/04/17 07:07:46;;;;;;;;;4.00;4.00;;;;;13.77;76.63;102097.50;6429652;22;45388;-94
2022/04/17 07:13:19;;;;;;;;;6.67;4.00;;;;;13.90;76.08;102083.25;6301670;22;45783;-94
2022/04/17 07:20:19;;;;;;;;;3.00;3.00;;;;;14.03;75.63;102080.44;6210029;22;45291;-96
2022/04/17 07:33:34;;;;;;;;;6.00;4.00;;;;;14.32;75.16;102060.75;5890278;24;45201;-95
2022/04/17 07:39:48;;;;;;;;;7.33;3.67;;;;;14.64;74.77;102086.13;6172377;22;45508;-96
2022/04/17 07:42:19;;;;;;;;;6.67;4.33;;;;;14.59;74.68;102076.16;6428616;22;47335;-89
2022/04/17 07:44:44;;;;;;;;;6.00;6.00;;;;;14.59;74.42;102062.94;6426864;22;45296;-88
2022/04/17 07:47:10;;;;;;;;;5.67;5.00;;;;;14.74;74.34;102079.56;6426815;22;45267;-88
2022/04/17 07:49:35;;;;;;;;;7.00;5.00;;;;;14.75;74.37;102068.19;6401014;22;45317;-85
2022/04/17 07:52:00;;;;;;;;;3.33;3.00;;;;;14.80;74.73;102067.50;6428541;22;55112;-89
2022/04/17 07:54:26;;;;;;;;;5.33;4.67;;;;;14.79;74.56;102052.47;6427493;22;45323;-87
2022/04/17 07:56:52;;;;;;;;;3.67;3.33;;;;;14.83;74.32;102057.06;6423294;22;45549;-87
2022/04/17 07:59:17;;;;;;;;;2.00;1.00;;;;;14.94;74.16;102066.47;6424087;22;45405;-88
2022/04/17 08:01:45;;;;;;;;;7.00;4.33;;;;;14.94;74.56;102055.00;6397533;22;47123;-87
2022/04/17 08:04:10;;;;;;;;;5.00;3.33;;;;;15.03;73.89;102059.81;6426092;22;45502;-87
2022/04/17 08:06:36;;;;;;;;;7.00;7.00;;;;;15.11;73.72;102055.78;6427111;22;45355;-87
2022/04/17 08:09:02;;;;;;;;;4.00;4.00;;;;;15.18;73.66;102049.03;6426132;22;45220;-87
2022/04/17 08:11:28;;;;;;;;;4.00;4.00;;;;;15.19;73.35;102037.66;6426435;22;45311;-85
2022/04/17 08:13:54;;;;;;;;;4.33;4.00;;;;;15.38;73.38;102055.31;6396328;22;45395;-89
2022/04/17 08:16:19;;;;;;;;;3.67;3.67;;;;;15.45;73.57;102044.97;6394795;22;45898;-87
2022/04/17 08:18:45;;;;;;;;;5.00;4.00;;;;;15.58;73.69;102055.31;6397505;22;45503;-87
2022/04/17 08:21:11;;;;;;;;;5.00;3.00;;;;;15.58;73.20;102036.78;6428100;22;45328;-86
2022/04/17 08:23:37;;;;;;;;;7.33;6.00;;;;;15.70;72.72;102047.00;6397549;22;45280;-86
2022/04/17 08:26:04;;;;;;;;;6.00;4.00;;;;;15.82;72.75;102048.41;6428052;22;45382;-86
2022/04/17 08:28:30;;;;;;;;;4.00;4.00;;;;;15.90;72.90;102046.97;6427171;22;45386;-87
2022/04/17 08:30:56;;;;;;;;;4.67;4.67;;;;;15.98;72.62;102044.66;6399670;22;47174;-87
2022/04/17 08:33:23;;;;;;;;;5.00;3.33;;;;;16.03;72.29;102037.84;6429593;22;45257;-88
2022/04/17 08:35:48;;;;;;;;;3.00;3.00;;;;;16.11;72.28;102035.56;6397387;22;45544;-87
2022/04/17 08:38:15;;;;;;;;;3.00;3.00;;;;;16.23;71.73;102043.13;6397518;22;45455;-87
2022/04/17 08:40:41;;;;;;;;;3.67;3.67;;;;;16.29;71.87;102034.53;6399739;22;47936;-88
2022/04/17 08:43:10;;;;;;;;;7.33;7.33;;;;;16.37;71.44;102045.44;6430194;22;45421;-90
2022/04/17 08:45:36;;;;;;;;;2.00;2.00;;;;;16.40;71.60;102045.59;6430374;22;45295;-91
2022/04/17 08:48:03;;;;;;;;;5.67;4.00;;;;;16.42;71.63;102031.56;6427127;22;45351;-88
2022/04/17 08:50:30;;;;;;;;;5.00;5.00;;;;;16.48;71.63;102025.63;6424793;22;47261;-89
2022/04/17 08:52:58;;;;;;;;;6.33;4.67;;;;;16.54;70.99;102030.28;6429297;22;45446;-89
2022/04/17 08:55:24;;;;;;;;;5.00;2.00;;;;;16.59;70.81;102033.13;6427000;22;45250;-89
2022/04/17 08:57:49;;;;;;;;;3.33;3.33;;;;;16.64;70.38;102028.91;6398642;22;45466;-89
2022/04/17 09:00:18;;;;;;;;;3.67;2.67;;;;;16.69;70.30;102021.13;6427767;22;45747;-89
2022/04/17 09:02:44;;;;;;;;;5.67;4.33;;;;;16.77;70.53;102026.75;6428692;22;45496;-90
2022/04/17 09:05:12;;;;;;;;;3.00;3.00;;;;;16.86;70.00;102033.31;6431084;22;45344;-93
2022/04/17 09:07:43;;;;;;;;;4.67;4.33;;;;;16.93;69.82;102025.63;6394108;22;45378;-87
2022/04/17 09:10:09;;;;;;;;;3.00;3.00;;;;;17.02;69.43;102028.63;6425591;22;47142;-87
2022/04/17 09:12:34;;;;;;;;;2.00;2.00;;;;;17.07;69.03;102015.53;6394833;22;45435;-87
2022/04/17 09:15:00;;;;;;;;;4.00;4.00;;;;;17.14;68.94;102020.22;6428319;22;45645;-87
2022/04/17 09:17:34;;;;;;;;;3.33;3.33;;;;;17.23;68.57;102018.81;6396566;22;45723;-88
2022/04/17 09:20:01;;;;;;;;;2.33;2.33;;;;;17.25;68.95;102010.06;6396905;22;48068;-87
2022/04/17 09:22:49;;;;;;;;;3.00;3.00;;;;;17.37;68.63;102017.56;6425605;22;45405;-87
2022/04/17 09:25:15;;;;;;;;;2.00;2.00;;;;;17.46;67.88;102016.13;6426924;22;45299;-87
2022/04/17 09:28:01;;;;;;;;;3.00;3.00;;;;;17.52;67.53;102006.63;6395873;22;45541;-88
2022/04/17 09:30:34;;;;;;;;;5.00;3.00;;;;;17.63;67.88;102009.69;6425615;22;46677;-85
2022/04/17 09:33:04;;;;;;;;;4.00;3.00;;;;;17.72;67.60;102005.56;6426129;22;45327;-87
2022/04/17 09:35:29;;;;;;;;;4.67;2.67;;;;;17.78;67.34;102007.53;6427008;22;45275;-87
2022/04/17 09:37:59;;;;;;;;;4.67;3.00;;;;;17.82;66.02;102004.13;6425013;22;54522;-88
2022/04/17 09:40:27;;;;;;;;;3.00;2.00;;;;;17.88;65.81;101993.72;6427464;22;45500;-88
2022/04/17 09:43:08;;;;;;;;;2.33;1.33;;;;;17.98;66.29;101995.84;6423164;22;45817;-88
2022/04/17 09:45:33;;;;;;;;;2.00;2.00;;;;;18.16;65.87;101988.47;6426451;22;45448;-92
2022/04/17 09:47:59;;;;;;;;;1.33;1.33;;;;;18.25;65.53;101979.91;6422784;22;45440;-89
2022/04/17 09:50:35;;;;;;;;;3.67;2.33;;;;;18.46;65.32;101986.78;6427899;22;45928;-88
2022/04/17 09:53:05;;;;;;;;;4.00;3.00;;;;;18.51;64.70;101978.09;6397980;22;45470;-89
2022/04/17 09:55:31;;;;;;;;;4.33;3.33;;;;;18.61;64.69;101971.31;6427117;22;45566;-92
2022/04/17 09:57:58;;;;;;;;;2.00;2.00;;;;;18.68;64.06;101969.78;6398604;22;45537;-92
2022/04/17 10:00:25;;;;;;;;;3.00;3.00;;;;;18.73;63.94;101970.81;6427882;22;46547;-94
2022/04/17 10:02:50;;;;;;;;;3.00;3.00;;;;;18.71;64.49;101959.22;6424839;22;45369;-93
2022/04/17 10:05:17;;;;;;;;;5.00;3.67;;;;;18.82;63.86;101963.97;6425590;22;45377;-90
2022/04/17 10:07:47;;;;;;;;;4.00;3.00;;;;;18.82;63.36;101953.31;6395888;22;45602;-89
2022/04/17 10:10:14;;;;;;;;;3.00;2.00;;;;;18.87;63.65;101951.72;6427213;22;47781;-92
2022/04/17 10:12:41;;;;;;;;;0.00;0.00;;;;;18.90;63.25;101953.56;6428320;22;45550;-93
2022/04/17 10:15:07;;;;;;;;;3.00;3.00;;;;;18.92;63.55;101947.44;6398627;22;45279;-91
2022/04/17 10:17:34;;;;;;;;;2.67;2.67;;;;;19.04;63.30;101953.97;6424134;22;45304;-93
2022/04/17 10:20:06;;;;;;;;;4.00;3.00;;;;;19.09;63.32;101942.63;6425441;22;48097;-88
2022/04/17 10:22:37;;;;;;;;;2.33;2.33;;;;;19.13;62.89;101938.28;6397177;22;45573;-86
2022/04/17 10:25:04;;;;;;;;;3.00;3.00;;;;;19.17;62.58;101940.16;6428817;22;45345;-85
2022/04/17 10:27:38;;;;;;;;;7.33;4.33;;;;;19.24;62.63;101940.38;6426886;22;45373;-85
2022/04/17 10:30:11;;;;;;;;;3.33;3.00;;;;;19.28;63.21;101937.84;6427714;22;45583;-85
2022/04/17 10:32:53;;;;;;;;;5.00;3.33;;;;;19.39;62.57;101932.81;6425190;22;45654;-87
2022/04/17 10:35:39;;;;;;;;;4.00;3.00;;;;;19.55;63.61;101933.25;6399063;22;45313;-87
2022/04/17 10:38:25;;;;;;;;;3.67;3.67;;;;;19.75;62.52;101923.13;6398686;22;45632;-85
2022/04/17 10:41:06;;;;;;;;;4.00;3.00;;;;;19.89;62.00;101909.25;6361189;22;47111;-86
2022/04/17 10:43:46;;;;;;;;;2.00;2.00;;;;;20.16;62.69;101916.16;6364375;22;45282;-85
2022/04/17 10:46:17;;;;;;;;;2.33;2.33;;;;;20.48;62.35;101906.19;6362548;22;45326;-85
2022/04/17 10:48:50;;;;;;;;;6.00;3.00;;;;;20.85;61.90;101906.09;6362100;22;45742;-85
2022/04/17 10:51:26;;;;;;;;;4.00;4.00;;;;;21.31;62.42;101900.81;6364931;22;45535;-85
2022/04/17 10:54:09;;;;;;;;;4.33;4.33;;;;;22.01;61.92;101894.88;6363360;22;45241;-86
2022/04/17 10:56:38;;;;;;;;;2.00;2.00;;;;;23.83;63.38;101886.38;6365695;22;45314;-85
2022/04/17 10:59:15;;;;;;;;;4.00;4.00;;;;;26.63;63.35;101879.84;6364651;22;45338;-85
2022/04/17 11:01:43;;;;;;;;;3.33;3.00;;;;;29.16;61.84;101877.53;6362438;22;47547;-85
2022/04/17 11:04:18;;;;;;;;;2.00;2.00;;;;;32.04;58.90;101869.72;6363581;22;45243;-87
2022/04/17 11:06:43;;;;;;;;;3.00;3.00;;;;;33.85;57.16;101875.06;6335698;22;45300;-87
2022/04/17 11:09:12;;;;;;;;;3.33;3.33;;;;;35.60;55.37;101870.13;6364082;22;45345;-87
2022/04/17 11:11:39;;;;;;;;;3.00;2.00;;;;;37.84;54.19;101875.03;6335791;22;48501;-87
2022/04/17 11:14:11;;;;;;;;;2.67;2.67;;;;;39.96;50.43;101870.38;6360640;22;45484;-88
2022/04/17 11:16:52;;;;;;;;;3.67;3.33;;;;;41.25;45.85;101864.84;6365839;22;45319;-89
2022/04/17 11:19:22;;;;;;;;;3.00;3.00;;;;;41.73;44.81;101864.28;6348169;22;45550;-90
2022/04/17 11:21:50;;;;;;;;;2.00;2.00;;;;;42.51;42.78;101855.06;6363850;22;46505;-87
2022/04/17 11:24:16;;;;;;;;;3.00;3.00;;;;;43.30;38.28;101854.69;6385299;22;45551;-84
2022/04/17 11:26:50;;;;;;;;;3.33;3.33;;;;;44.44;37.93;101851.19;6361598;22;45326;-90
2022/04/17 11:29:16;;;;;;;;;6.67;5.67;;;;;45.49;38.21;101844.25;6352539;22;45495;-89
2022/04/17 11:31:41;;;;;;;;;5.00;5.00;;;;;46.60;36.16;101841.78;6361391;22;48097;-87
2022/04/17 11:34:07;;;;;;;;;3.33;3.00;;;;;47.72;35.63;101848.00;6360490;22;45567;-88
2022/04/17 11:36:32;;;;;;;;;4.00;4.00;;;;;48.62;33.66;101840.97;6364148;22;45729;-88
2022/04/17 11:38:58;;;;;;;;;1.00;1.00;;;;;49.44;33.62;101846.53;6378740;22;45584;-88
2022/04/17 11:41:24;;;;;;;;;4.00;4.00;;;;;50.09;32.84;101829.47;6398267;22;48005;-88
2022/04/17 11:44:02;;;;;;;;;2.33;2.33;;;;;50.45;30.35;101828.34;6427688;22;45371;-88
2022/04/17 11:46:28;;;;;;;;;2.67;2.67;;;;;50.30;30.53;101837.38;6428670;22;45323;-88
2022/04/17 11:48:54;;;;;;;;;3.33;3.00;;;;;50.68;29.04;101824.88;6426113;22;45404;-87
2022/04/17 11:51:20;;;;;;;;;4.00;4.00;;;;;51.39;30.00;101834.63;6399852;22;46098;-88
2022/04/17 11:53:46;;;;;;;;;3.00;3.00;;;;;52.19;28.95;101822.63;6426914;22;45972;-87
2022/04/17 11:56:11;;;;;;;;;2.00;2.00;;;;;52.90;27.65;101811.47;6429206;22;45913;-88
2022/04/17 11:58:36;;;;;;;;;4.00;4.00;;;;;53.53;28.00;101805.72;6398739;22;49661;-86
2022/04/17 12:01:05;;;;;;;;;5.00;4.00;;;;;54.32;27.09;101802.41;6428915;22;45992;-87
2022/04/17 12:03:45;;;;;;;;;3.00;2.00;;;;;55.08;26.57;101808.47;6429060;22;45385;-88
2022/04/17 12:06:11;;;;;;;;;2.00;2.00;;;;;55.68;26.05;101807.13;6399846;22;45617;-88
2022/04/17 12:08:37;;;;;;;;;4.33;2.33;;;;;56.33;25.95;101802.13;6398290;22;45725;-88
2022/04/17 12:11:07;;;;;;;;;2.00;2.00;;;;;56.91;24.44;101788.50;6430280;22;45515;-88
2022/04/17 12:13:33;;;;;;;;;2.33;2.33;;;;;57.38;24.80;101800.75;6427703;22;45248;-87
2022/04/17 12:16:03;;;;;;;;;4.33;3.00;;;;;57.77;24.36;101786.72;6428550;22;45343;-88
2022/04/17 12:18:29;;;;;;;;;4.67;3.00;;;;;58.18;23.47;101785.59;6428007;22;45330;-88
2022/04/17 12:21:03;;;;;;;;;3.00;3.00;;;;;58.56;23.58;101775.34;6426689;22;46310;-89
2022/04/17 12:23:29;;;;;;;;;2.67;2.67;;;;;58.83;22.49;101780.75;6426719;22;45443;-90
2022/04/17 12:25:55;;;;;;;;;1.00;1.00;;;;;59.02;22.31;101775.13;6428491;22;45498;-90
2022/04/17 12:28:22;;;;;;;;;3.00;2.00;;;;;59.21;21.72;101767.50;6428030;22;45324;-87
2022/04/17 12:30:48;;;;;;;;;1.67;1.67;;;;;59.41;21.63;101765.53;6427196;22;46456;-88
2022/04/17 12:33:22;;;;;;;;;2.00;2.00;;;;;59.49;21.46;101756.72;6428187;22;45206;-90
2022/04/17 12:36:01;;;;;;;;;2.00;1.00;;;;;59.65;20.81;101758.00;6428507;22;45282;-88
2022/04/17 12:38:26;;;;;;;;;1.00;1.00;;;;;59.69;20.31;101764.91;6425117;22;45401;-88
2022/04/17 12:40:52;;;;;;;;;2.00;2.00;;;;;59.74;20.09;101754.84;6426450;22;68284;-88
2022/04/17 12:43:19;;;;;;;;;1.00;1.00;;;;;59.79;19.73;101753.06;6426572;22;45396;-89
2022/04/17 12:45:59;;;;;;;;;1.67;1.67;;;;;59.96;19.56;101746.69;6427763;22;45330;-90
2022/04/17 12:48:25;;;;;;;;;3.00;2.00;;;;;60.02;19.56;101739.19;6399404;22;45652;-89
2022/04/17 12:50:55;;;;;;;;;1.33;1.33;;;;;60.20;20.35;101745.88;6423958;22;45459;-89
2022/04/17 12:53:21;;;;;;;;;8.00;8.00;;;;;60.55;19.52;101733.72;6425006;22;45238;-89
2022/04/17 12:55:47;;;;;;;;;2.00;2.00;;;;;60.95;18.95;101727.50;6426743;22;45536;-89
2022/04/17 12:58:12;;;;;;;;;0.67;0.67;;;;;61.21;19.60;101725.25;6398938;22;45318;-88
2022/04/17 13:00:37;;;;;;;;;1.00;1.00;;;;;61.61;18.73;101728.31;6426140;22;46501;-89
2022/04/17 13:03:13;;;;;;;;;3.00;3.00;;;;;61.99;18.41;101720.22;6426640;22;51405;-88
2022/04/17 13:05:39;;;;;;;;;4.00;3.00;;;;;62.30;18.03;101726.38;6426287;22;45266;-89
2022/04/17 13:08:06;;;;;;;;;3.00;3.00;;;;;62.50;18.88;101719.34;6426646;22;45313;-88
2022/04/17 13:10:32;;;;;;;;;2.67;1.00;;;;;62.92;18.53;101716.19;6427099;22;46267;-89
2022/04/17 13:12:57;;;;;;;;;1.00;1.00;;;;;62.65;18.38;101713.00;6427809;22;45324;-88
2022/04/17 13:15:34;;;;;;;;;1.00;1.00;;;;;62.23;18.61;101714.34;6397667;22;51779;-90
2022/04/17 13:18:00;;;;;;;;;1.67;1.67;;;;;62.07;18.27;101707.53;6427435;22;45748;-89
2022/04/17 13:20:27;;;;;;;;;2.00;2.00;;;;;61.89;18.49;101706.69;6398029;22;47856;-89
2022/04/17 13:22:53;;;;;;;;;1.00;0.00;;;;;61.08;18.13;101684.72;6425847;22;45314;-89
2022/04/17 13:25:20;;;;;;;;;0.00;0.00;;;;;59.73;18.26;101690.84;6427901;22;45338;-89
2022/04/17 13:27:47;;;;;;;;;0.00;0.00;;;;;58.53;18.58;101688.22;6397967;22;45614;-88
2022/04/17 13:30:13;;;;;;;;;2.00;2.00;;;;;57.02;18.74;101674.19;6425200;22;47511;-89
2022/04/17 13:32:39;;;;;;;;;1.00;1.00;;;;;54.89;19.28;101676.03;6397085;22;45703;-88
2022/04/17 13:35:06;;;;;;;;;1.33;1.33;;;;;52.89;19.38;101671.56;6398750;22;45353;-88
2022/04/17 13:40:15;;;;;;;;;0.67;0.67;;;;;50.17;20.05;101653.69;6425802;22;45266;-86
2022/04/17 13:42:41;;;;;;;;;1.00;1.00;;;;;49.63;20.86;101643.78;6421282;22;45345;-86
2022/04/17 13:45:07;;;;;;;;;1.00;1.00;;;;;50.11;20.93;101643.19;6427248;22;45328;-86
2022/04/17 13:47:33;;;;;;;;;0.00;0.00;;;;;51.32;20.72;101649.09;6396944;22;45515;-86
2022/04/17 13:49:58;;;;;;;;;1.67;1.67;;;;;51.65;20.55;101644.41;6425532;22;46561;-86
2022/04/17 13:52:25;;;;;;;;;1.00;1.00;;;;;51.37;20.09;101632.66;6424057;22;62099;-86
2022/04/17 13:54:51;;;;;;;;;0.67;0.67;;;;;50.58;20.63;101637.09;6426390;22;45349;-86
2022/04/17 13:57:16;;;;;;;;;1.33;0.33;;;;;50.23;21.28;101632.56;6397364;22;45425;-85
2022/04/17 13:59:42;;;;;;;;;1.67;1.67;;;;;50.96;20.55;101626.16;6395759;22;48313;-86
2022/04/17 14:02:07;;;;;;;;;0.33;0.33;;;;;52.27;20.62;101627.69;6425528;22;45685;-89
2022/04/17 14:04:33;;;;;;;;;0.67;0.67;;;;;53.49;19.90;101628.56;6397957;22;45324;-87
2022/04/17 14:06:58;;;;;;;;;0.00;0.00;;;;;54.83;19.93;101624.31;6396529;22;51325;-87
2022/04/17 14:09:24;;;;;;;;;2.00;2.00;;;;;55.89;19.88;101618.59;6396055;22;46952;-87
2022/04/17 14:11:50;;;;;;;;;3.00;1.67;;;;;56.94;19.07;101618.91;6427599;22;45462;-87
2022/04/17 14:14:15;;;;;;;;;0.33;0.33;;;;;58.21;19.91;101604.41;6427362;22;45343;-87
2022/04/17 14:16:41;;;;;;;;;1.00;1.00;;;;;59.55;19.73;101604.91;6397108;22;45424;-87
2022/04/17 14:19:08;;;;;;;;;0.67;0.67;;;;;60.43;19.52;101609.06;6425306;22;46909;-88
2022/04/17 14:21:33;;;;;;;;;1.00;1.00;;;;;60.84;18.66;101598.84;6427344;22;45294;-87
2022/04/17 14:23:59;;;;;;;;;0.00;0.00;;;;;61.09;19.04;101607.03;6396659;22;45373;-88
2022/04/17 14:26:24;;;;;;;;;2.00;1.33;;;;;61.12;18.17;101603.69;6425258;22;45539;-88
2022/04/17 14:28:49;;;;;;;;;2.00;2.00;;;;;60.88;18.27;101609.41;6397956;22;46190;-87
2022/04/17 14:31:15;;;;;;;;;1.00;0.00;;;;;60.84;18.60;101599.72;6397451;22;64136;-87
2022/04/17 14:33:40;;;;;;;;;1.00;1.00;;;;;60.67;18.26;101596.84;6427359;22;45325;-90
2022/04/17 14:36:05;;;;;;;;;1.00;0.00;;;;;60.11;17.79;101584.81;6426981;22;45255;-90
2022/04/17 14:38:31;;;;;;;;;2.00;0.33;;;;;59.49;18.45;101581.28;6425947;22;50984;-88
2022/04/17 14:40:56;;;;;;;;;0.00;0.00;;;;;58.76;18.46;101591.44;6397639;22;45302;-88
2022/04/17 14:43:21;;;;;;;;;0.00;0.00;;;;;58.73;18.12;101582.53;6427273;22;45705;-90
2022/04/17 14:45:48;;;;;;;;;0.67;0.67;;;;;58.58;18.29;101575.34;6426292;22;45711;-87
2022/04/17 14:48:14;;;;;;;;;0.00;0.00;;;;;58.30;18.27;101562.63;6426510;22;46130;-86
2022/04/17 14:50:40;;;;;;;;;0.33;0.33;;;;;57.36;18.33;101574.47;6426854;22;45374;-86
2022/04/17 14:53:06;;;;;;;;;1.00;1.00;;;;;55.95;18.38;101564.31;6426379;22;45322;-86
2022/04/17 14:55:32;;;;;;;;;0.00;0.00;;;;;53.85;18.53;101554.69;6427380;22;45325;-86
2022/04/17 14:57:59;;;;;;;;;0.33;0.33;;;;;51.73;19.66;101557.63;6426832;22;45397;-86
2022/04/17 15:00:25;;;;;;;;;0.00;0.00;;;;;49.00;19.77;101552.13;6427228;22;45440;-88
2022/04/17 15:02:50;;;;;;;;;0.00;0.00;;;;;46.32;20.93;101544.72;6425979;22;45361;-86
2022/04/17 15:05:15;;;;;;;;;0.00;0.00;;;;;43.94;21.46;101548.34;6428192;22;45278;-86
2022/04/17 15:07:41;;;;;;;;;0.33;0.33;;;;;41.81;22.48;101545.94;6423436;22;46089;-87
2022/04/17 15:10:07;;;;;;;;;0.00;0.00;;;;;39.94;22.89;101540.75;6427149;22;45376;-86
2022/04/17 15:12:32;;;;;;;;;0.00;0.00;;;;;38.38;23.88;101541.41;6396080;22;45381;-87
2022/04/17 15:14:57;;;;;;;;;1.33;1.00;;;;;37.03;24.40;101529.00;6422765;22;59788;-85
2022/04/17 15:17:23;;;;;;;;;0.00;0.00;;;;;35.87;25.66;101533.94;6394207;22;64209;-86
2022/04/17 15:19:49;;;;;;;;;0.00;0.00;;;;;34.86;26.47;101523.25;6396782;22;45975;-86
2022/04/17 15:22:15;;;;;;;;;0.67;0.67;;;;;33.93;26.95;101521.72;6397132;22;45389;-86
2022/04/17 15:24:41;;;;;;;;;0.00;0.00;;;;;33.13;27.32;101508.50;6430785;22;45343;-85
2022/04/17 15:27:06;;;;;;;;;0.33;0.33;;;;;32.40;28.46;101510.19;6400397;22;46902;-86
2022/04/17 15:29:32;;;;;;;;;1.00;1.00;;;;;31.78;28.70;101511.28;6428496;22;45358;-86
2022/04/17 15:31:58;;;;;;;;;0.00;0.00;;;;;31.19;28.82;101497.72;6398908;22;45670;-85
2022/04/17 15:34:23;;;;;;;;;1.00;1.00;;;;;30.64;29.36;101506.50;6399161;22;45355;-86
2022/04/17 15:36:49;;;;;;;;;2.00;2.00;;;;;30.12;29.58;101494.28;6427291;22;45355;-85
2022/04/17 15:39:14;;;;;;;;;0.67;0.67;;;;;29.66;29.99;101499.88;6397875;22;46947;-86
2022/04/17 15:41:41;;;;;;;;;1.00;1.00;;;;;29.27;30.61;101498.03;6399134;22;45354;-85
2022/04/17 15:49:34;;;;;;;;;1.00;1.00;;;;;28.10;31.76;101485.75;6427043;22;45519;-85
2022/04/17 15:52:00;;;;;;;;;1.00;1.00;;;;;27.80;32.14;101491.63;6427895;22;45211;-86
2022/04/17 15:54:25;;;;;;;;;1.67;1.00;;;;;27.53;32.48;101485.69;6427580;22;45170;-86
2022/04/17 15:56:50;;;;;;;;;0.00;0.00;;;;;27.24;32.61;101470.84;6399157;22;48136;-85
2022/04/17 15:59:20;;;;;;;;;1.33;1.00;;;;;27.02;32.85;101479.16;6427801;22;45436;-86
2022/04/17 16:01:46;;;;;;;;;0.00;0.00;;;;;26.81;32.89;101479.41;6428694;22;45466;-86
2022/04/17 16:04:11;;;;;;;;;0.00;0.00;;;;;26.62;33.03;101476.91;6398743;22;45359;-85
2022/04/17 16:06:36;;;;;;;;;2.00;2.00;;;;;26.44;33.35;101480.69;6428656;22;45369;-85
2022/04/17 16:09:02;;;;;;;;;0.33;0.00;;;;;26.27;33.53;101472.72;6428030;22;58726;-86
2022/04/17 16:11:27;;;;;;;;;0.67;0.67;;;;;26.09;33.59;101478.25;6399716;22;45365;-86
2022/04/17 16:13:53;;;;;;;;;1.00;1.00;;;;;25.95;34.23;101475.66;6426186;22;45263;-86
2022/04/17 16:16:18;;;;;;;;;0.00;0.00;;;;;25.81;33.85;101478.47;6428154;22;46116;-86
2022/04/17 16:18:44;;;;;;;;;0.00;0.00;;;;;25.70;34.61;101478.50;6425656;22;55990;-87
2022/04/17 16:21:10;;;;;;;;;0.00;0.00;;;;;25.58;34.11;101475.91;6423669;22;45671;-86
2022/04/17 16:23:35;;;;;;;;;1.00;1.00;;;;;25.45;34.70;101475.97;6425487;22;45634;-85
2022/04/17 16:26:00;;;;;;;;;1.33;0.33;;;;;25.32;34.61;101469.78;6428163;22;45465;-87
2022/04/17 16:28:26;;;;;;;;;1.00;1.00;;;;;25.26;34.92;101478.75;6426014;22;56335;-86
2022/04/17 16:30:52;;;;;;;;;1.00;1.00;;;;;25.15;35.60;101480.63;6429406;22;45314;-85
2022/04/17 16:33:17;;;;;;;;;0.00;0.00;;;;;25.01;35.18;101470.81;6426517;22;45412;-87
2022/04/17 16:35:43;;;;;;;;;1.00;1.00;;;;;24.96;35.32;101469.91;6400454;22;47039;-88
2022/04/17 16:38:08;;;;;;;;;2.00;1.00;;;;;24.84;35.43;101469.03;6425423;22;45414;-88
2022/04/17 16:40:34;;;;;;;;;0.67;0.67;;;;;24.75;36.00;101469.97;6427761;22;49676;-85
2022/04/17 16:42:59;;;;;;;;;1.00;1.00;;;;;24.65;36.14;101462.84;6429087;22;45496;-85
2022/04/17 16:45:24;;;;;;;;;1.00;1.00;;;;;24.55;36.04;101454.81;6428348;22;48806;-85
2022/04/17 16:47:50;;;;;;;;;3.67;2.00;;;;;24.46;35.96;101456.63;6427387;22;45277;-84
2022/04/17 16:50:15;;;;;;;;;1.00;1.00;;;;;24.37;36.52;101454.84;6429971;22;45940;-85
2022/04/17 16:52:42;;;;;;;;;1.00;1.00;;;;;24.28;36.44;101463.78;6398420;22;45317;-84
2022/04/17 16:55:09;;;;;;;;;0.00;0.00;;;;;24.22;36.12;101465.53;6429286;22;46272;-85
2022/04/17 17:00:20;;;;;;;;;1.00;1.00;;;;;24.01;37.16;101455.72;6428737;22;45216;-86
2022/04/17 17:02:46;;;;;;;;;0.00;0.00;;;;;23.95;36.89;101455.69;6396824;22;45239;-88
2022/04/17 17:05:11;;;;;;;;;2.67;1.00;;;;;23.86;36.85;101452.13;6427326;22;45352;-89
2022/04/17 17:07:36;;;;;;;;;1.33;0.00;;;;;23.83;37.57;101460.19;6422830;22;45678;-87
2022/04/17 17:10:02;;;;;;;;;0.00;0.00;;;;;23.73;37.30;101447.66;6428228;22;45678;-88